createdAt,value
2018-07-12T00:01:13.659Z,76.10
2018-07-12T00:03:40.152Z,75.90
2018-07-12T00:06:06.668Z,76.40
2018-07-12T00:08:33.144Z,76.40
2018-07-12T00:10:59.637Z,76.50
2018-07-12T00:13:26.109Z,76.40
2018-07-12T00:15:52.596Z,76.20
2018-07-12T00:18:19.084Z,76.00
2018-07-12T00:20:45.972Z,75.90
2018-07-12T00:23:12.449Z,75.80
2018-07-12T00:25:39.009Z,76.50
2018-07-12T00:28:05.510Z,75.70
2018-07-12T00:30:31.983Z,75.60
2018-07-12T00:32:58.493Z,75.60
2018-07-12T00:35:25.004Z,75.20
2018-07-12T00:37:51.580Z,75.80
2018-07-12T00:40:18.106Z,75.80
2018-07-12T00:42:44.591Z,75.80
2018-07-12T00:45:11.087Z,76.20
2018-07-12T00:47:37.673Z,77.50
2018-07-12T00:50:04.289Z,77.00
2018-07-12T00:52:31.065Z,77.40
2018-07-12T00:54:57.585Z,77.80
2018-07-12T00:57:24.065Z,78.00
2018-07-12T00:59:50.547Z,78.10
2018-07-12T01:02:17.038Z,78.40
2018-07-12T01:04:43.523Z,78.80
2018-07-12T01:07:10.012Z,79.00
2018-07-12T01:09:36.539Z,79.20
2018-07-12T01:12:03.010Z,79.10
2018-07-12T01:14:29.492Z,78.90
2018-07-12T01:19:22.906Z,78.90
2018-07-12T01:21:49.392Z,78.90
2018-07-12T01:24:15.882Z,79.00
2018-07-12T01:26:42.360Z,79.20
2018-07-12T01:29:08.889Z,79.40
2018-07-12T01:31:35.395Z,79.80
2018-07-12T01:34:01.868Z,80.00
2018-07-12T01:36:28.331Z,79.90
2018-07-12T01:38:54.835Z,80.30
2018-07-12T01:41:21.303Z,80.50
2018-07-12T01:43:47.810Z,80.40
2018-07-12T01:46:14.299Z,80.20
2018-07-12T01:48:40.769Z,79.90
2018-07-12T01:51:07.244Z,79.60
2018-07-12T01:53:33.745Z,79.60
2018-07-12T01:56:00.221Z,79.60
2018-07-12T01:58:26.694Z,79.60
2018-07-12T02:03:20.107Z,79.20
2018-07-12T02:05:46.593Z,79.00
2018-07-12T02:08:13.095Z,79.10
2018-07-12T02:10:39.563Z,79.20
2018-07-12T02:13:06.033Z,79.20
2018-07-12T02:15:32.543Z,79.00
2018-07-12T02:17:59.038Z,79.40
2018-07-12T02:20:25.525Z,79.20
2018-07-12T02:22:52.419Z,79.00
2018-07-12T02:25:18.922Z,79.00
2018-07-12T02:27:45.382Z,79.00
2018-07-12T02:30:11.899Z,79.10
2018-07-12T02:32:38.386Z,79.20
2018-07-12T02:35:04.962Z,79.20
2018-07-12T02:37:31.443Z,79.20
2018-07-12T02:39:57.938Z,79.50
2018-07-12T02:42:24.432Z,79.80
2018-07-12T02:44:51.170Z,79.90
2018-07-12T02:47:18.075Z,80.00
2018-07-12T02:49:44.602Z,79.90
2018-07-12T02:52:11.346Z,79.90
2018-07-12T02:54:37.838Z,80.10
2018-07-12T02:57:04.337Z,80.50
2018-07-12T02:59:30.888Z,80.40
2018-07-12T03:01:57.382Z,80.40
2018-07-12T03:04:23.846Z,80.40
2018-07-12T03:06:50.312Z,80.40
2018-07-12T03:09:16.797Z,80.20
2018-07-12T03:11:43.270Z,80.40
2018-07-12T03:14:09.732Z,80.50
2018-07-12T03:16:36.500Z,80.90
2018-07-12T03:19:03.009Z,80.90
2018-07-12T03:21:29.506Z,80.60
2018-07-12T03:23:56.099Z,80.60
2018-07-12T03:26:22.614Z,80.50
2018-07-12T03:28:49.764Z,80.30
2018-07-12T03:31:16.248Z,80.20
2018-07-12T03:33:42.737Z,80.00
2018-07-12T03:36:09.213Z,80.20
2018-07-12T03:41:02.629Z,80.30
2018-07-12T03:43:29.167Z,80.20
2018-07-12T03:45:55.662Z,80.10
2018-07-12T03:48:22.142Z,80.00
2018-07-12T03:50:48.633Z,80.00
2018-07-12T03:53:15.149Z,80.20
2018-07-12T03:55:41.657Z,80.30
2018-07-12T03:58:08.134Z,80.20
2018-07-12T04:00:34.625Z,80.20
2018-07-12T04:03:01.103Z,80.20
2018-07-12T04:05:28.450Z,80.20
2018-07-12T04:07:54.963Z,80.60
2018-07-12T04:10:21.435Z,81.00
2018-07-12T04:12:48.133Z,81.20
2018-07-12T04:15:14.641Z,81.40
2018-07-12T04:17:41.109Z,81.30
2018-07-12T04:20:07.583Z,81.40
2018-07-12T04:22:35.199Z,81.60
2018-07-12T04:25:01.682Z,81.50
2018-07-12T04:27:28.420Z,81.40
2018-07-12T04:29:56.429Z,81.60
2018-07-12T04:32:22.932Z,81.60
2018-07-12T04:34:50.010Z,81.60
2018-07-12T04:37:16.761Z,82.30
2018-07-12T04:39:43.471Z,82.20
2018-07-12T04:42:09.956Z,82.00
2018-07-12T04:44:36.492Z,81.80
2018-07-12T04:47:03.127Z,81.60
2018-07-12T04:49:29.609Z,81.20
2018-07-12T04:51:58.090Z,81.00
2018-07-12T04:54:26.869Z,81.40
2018-07-12T04:56:53.395Z,81.20
2018-07-12T04:59:20.592Z,81.20
2018-07-12T05:01:47.511Z,81.20
2018-07-12T05:04:13.992Z,81.20
2018-07-12T05:06:40.474Z,81.00
2018-07-12T05:09:08.236Z,80.80
2018-07-12T05:11:34.743Z,80.70
2018-07-12T05:14:01.223Z,80.70
2018-07-12T05:16:27.703Z,80.90
2018-07-12T05:18:54.176Z,81.00
2018-07-12T05:21:20.651Z,81.00
2018-07-12T05:23:47.157Z,80.90
2018-07-12T05:26:13.631Z,80.50
2018-07-12T05:28:40.140Z,80.20
2018-07-12T05:31:06.864Z,80.30
2018-07-12T05:33:33.369Z,81.40
2018-07-12T05:36:02.532Z,80.50
2018-07-12T05:38:30.077Z,80.30
2018-07-12T05:43:25.193Z,79.90
2018-07-12T05:45:52.794Z,79.90
2018-07-12T05:48:20.369Z,79.70
2018-07-12T05:50:49.101Z,79.50
2018-07-12T05:53:18.159Z,79.10
2018-07-12T05:55:45.872Z,79.10
2018-07-12T05:58:13.511Z,78.80
2018-07-12T06:00:41.893Z,79.50
2018-07-12T06:05:37.428Z,79.40
2018-07-12T06:08:06.796Z,79.00
2018-07-12T06:10:35.821Z,78.90
2018-07-12T06:13:04.204Z,78.50
2018-07-12T06:15:31.826Z,78.10
2018-07-12T06:17:59.500Z,78.10
2018-07-12T06:20:27.148Z,78.00
2018-07-12T06:22:54.779Z,78.10
2018-07-12T06:25:22.526Z,78.30
2018-07-12T06:27:50.204Z,78.70
2018-07-12T06:30:17.874Z,78.90
2018-07-12T06:32:45.543Z,79.10
2018-07-12T06:35:13.352Z,78.80
2018-07-12T06:37:41.008Z,79.00
2018-07-12T06:40:08.682Z,78.70
2018-07-12T06:42:36.411Z,78.30
2018-07-12T06:45:05.150Z,77.70
2018-07-12T06:47:32.857Z,77.50
2018-07-12T06:50:00.518Z,77.70
2018-07-12T06:52:29.418Z,77.30
2018-07-12T06:54:57.330Z,76.80
2018-07-12T06:57:25.289Z,76.50
2018-07-12T06:59:53.014Z,75.90
2018-07-12T07:02:20.682Z,75.60
2018-07-12T07:04:48.406Z,75.00
2018-07-12T07:07:16.062Z,74.60
2018-07-12T07:09:43.736Z,74.00
2018-07-12T07:12:11.464Z,74.00
2018-07-12T07:14:39.203Z,74.20
2018-07-12T07:17:07.011Z,74.10
2018-07-12T07:19:34.758Z,74.20
2018-07-12T07:22:02.516Z,73.90
2018-07-12T07:24:30.344Z,73.10
2018-07-12T07:26:58.064Z,73.50
2018-07-12T07:29:25.744Z,74.00
2018-07-12T07:31:53.453Z,73.70
2018-07-12T07:34:21.157Z,73.40
2018-07-12T07:36:48.937Z,73.50
2018-07-12T07:39:16.718Z,73.60
2018-07-12T07:41:44.372Z,73.80
2018-07-12T07:44:12.034Z,74.00
2018-07-12T07:46:39.710Z,74.20
2018-07-12T07:49:07.438Z,74.00
2018-07-12T07:51:35.137Z,73.30
2018-07-12T07:54:02.817Z,71.80
2018-07-12T07:56:30.499Z,71.00
2018-07-12T07:58:58.163Z,70.70
2018-07-12T08:01:27.231Z,70.10
2018-07-12T08:03:58.964Z,69.50
2018-07-12T08:06:26.701Z,69.30
2018-07-12T08:08:54.367Z,69.70
2018-07-12T08:11:22.393Z,70.50
2018-07-12T08:13:50.691Z,71.20
2018-07-12T08:16:19.993Z,72.00
2018-07-12T08:18:47.891Z,70.50
2018-07-12T08:21:16.991Z,69.90
2018-07-12T08:23:46.187Z,68.90
2018-07-12T08:26:14.263Z,67.50
2018-07-12T08:29:30.955Z,66.30
2018-07-12T08:31:58.595Z,66.30
2018-07-12T08:34:26.679Z,65.80
2018-07-12T08:36:54.600Z,65.40
2018-07-12T08:39:22.262Z,64.80
2018-07-12T08:44:32.542Z,64.10
2018-07-12T08:47:01.629Z,63.70
2018-07-12T08:49:31.104Z,63.40
2018-07-12T08:52:02.937Z,62.90
2018-07-12T08:54:30.601Z,62.70
2018-07-12T08:56:58.193Z,61.40
2018-07-12T08:59:25.833Z,60.50
2018-07-12T09:01:53.450Z,59.60
2018-07-12T09:04:21.093Z,59.30
2018-07-12T09:06:48.844Z,58.90
2018-07-12T09:09:16.533Z,59.00
2018-07-12T09:11:44.259Z,58.20
2018-07-12T09:14:11.911Z,57.60
2018-07-12T09:16:39.565Z,57.20
2018-07-12T09:19:07.212Z,56.90
2018-07-12T09:21:34.881Z,57.10
2018-07-12T09:24:02.569Z,57.10
2018-07-12T09:26:30.219Z,56.80
2018-07-12T09:28:57.914Z,57.00
2018-07-12T09:31:25.708Z,56.60
2018-07-12T09:33:53.535Z,55.90
2018-07-12T09:36:21.198Z,55.90
2018-07-12T09:38:50.819Z,55.70
2018-07-12T09:41:19.448Z,55.20
2018-07-12T09:43:47.964Z,54.40
2018-07-12T09:46:15.941Z,54.40
2018-07-12T09:48:45.149Z,54.30
2018-07-12T09:51:13.487Z,54.30
2018-07-12T09:53:42.355Z,54.10
2018-07-12T09:56:10.352Z,54.30
2018-07-12T09:58:38.896Z,53.80
2018-07-12T10:03:14.166Z,53.50
2018-07-12T10:05:47.604Z,55.20
2018-07-12T10:10:55.461Z,53.30
2018-07-12T10:13:24.099Z,53.00
2018-07-12T10:15:57.404Z,52.30
2018-07-12T10:18:27.900Z,51.30
2018-07-12T10:20:55.762Z,52.00
2018-07-12T10:23:23.942Z,52.40
2018-07-12T10:25:51.732Z,52.50
2018-07-12T10:28:19.500Z,52.20
2018-07-12T10:33:16.024Z,52.40
2018-07-12T10:35:43.742Z,52.10
2018-07-12T10:38:11.440Z,52.80
2018-07-12T10:40:39.170Z,53.30
2018-07-12T10:43:07.391Z,53.40
2018-07-12T10:45:35.176Z,53.10
2018-07-12T10:48:03.385Z,52.00
2018-07-12T10:50:31.224Z,52.60
2018-07-12T10:52:58.927Z,52.30
2018-07-12T10:55:26.593Z,52.60
2018-07-12T10:57:54.474Z,52.80
2018-07-12T11:00:22.194Z,52.10
2018-07-12T11:02:49.915Z,52.40
2018-07-12T11:05:17.955Z,52.20
2018-07-12T11:07:45.926Z,51.80
2018-07-12T11:10:14.020Z,52.10
2018-07-12T11:12:41.933Z,51.20
2018-07-12T11:15:09.656Z,50.60
2018-07-12T11:17:37.389Z,50.50
2018-07-12T11:20:05.375Z,50.20
2018-07-12T11:22:33.389Z,50.90
2018-07-12T11:25:01.106Z,49.40
2018-07-12T11:27:28.783Z,48.70
2018-07-12T11:29:57.922Z,48.20
2018-07-12T11:32:25.654Z,47.50
2018-07-12T11:34:53.355Z,48.20
2018-07-12T11:37:23.668Z,47.40
2018-07-12T11:39:51.677Z,48.30
2018-07-12T11:42:19.357Z,48.00
2018-07-12T11:44:47.484Z,46.80
2018-07-12T11:47:15.862Z,46.70
2018-07-12T11:49:43.540Z,48.00
2018-07-12T11:52:11.274Z,47.30
2018-07-12T11:54:38.964Z,47.30
2018-07-12T11:57:06.638Z,46.80
2018-07-12T11:59:34.344Z,46.40
2018-07-12T12:02:02.053Z,45.70
2018-07-12T12:04:29.928Z,44.80
2018-07-12T12:06:57.886Z,45.70
2018-07-12T12:09:25.640Z,46.20
2018-07-12T12:11:53.395Z,45.70
2018-07-12T12:14:21.064Z,45.10
2018-07-12T12:16:48.749Z,45.20
2018-07-12T12:19:16.450Z,44.00
2018-07-12T12:21:44.116Z,43.50
2018-07-12T12:24:11.790Z,44.70
2018-07-12T12:26:39.498Z,43.90
2018-07-12T12:29:07.185Z,43.10
2018-07-12T12:31:34.948Z,42.70
2018-07-12T12:34:03.024Z,42.40
2018-07-12T12:36:30.721Z,41.80
2018-07-12T12:38:58.381Z,42.40
2018-07-12T12:41:26.090Z,42.20
2018-07-12T12:43:53.775Z,40.70
2018-07-12T12:46:21.589Z,41.50
2018-07-12T12:48:49.209Z,40.70
2018-07-12T12:53:44.509Z,40.70
2018-07-12T12:56:12.245Z,40.90
2018-07-12T12:58:40.191Z,39.60
2018-07-12T13:01:07.997Z,39.20
2018-07-12T13:03:35.695Z,40.20
2018-07-12T13:06:03.570Z,39.70
2018-07-12T13:08:31.317Z,39.50
2018-07-12T13:10:59.107Z,39.70
2018-07-12T13:13:26.794Z,39.80
2018-07-12T13:15:54.473Z,38.80
2018-07-12T13:18:22.173Z,39.10
2018-07-12T13:20:49.907Z,39.00
2018-07-12T13:23:17.566Z,38.90
2018-07-12T13:25:45.345Z,38.10
2018-07-12T13:28:13.131Z,37.50
2018-07-12T13:30:40.937Z,37.10
2018-07-12T13:33:08.745Z,36.40
2018-07-12T13:35:36.533Z,37.30
2018-07-12T13:38:04.305Z,37.40
2018-07-12T13:40:31.989Z,37.40
2018-07-12T13:42:59.701Z,37.90
2018-07-12T13:45:27.641Z,36.80
2018-07-12T13:47:55.369Z,38.10
2018-07-12T13:50:23.080Z,37.00
2018-07-12T13:52:50.778Z,37.70
2018-07-12T13:55:18.477Z,37.60
2018-07-12T13:57:46.281Z,36.80
2018-07-12T14:00:14.001Z,36.40
2018-07-12T14:02:41.623Z,35.00
2018-07-12T14:05:09.411Z,34.60
2018-07-12T14:07:37.119Z,33.90
2018-07-12T14:10:05.195Z,33.80
2018-07-12T14:12:32.891Z,33.80
2018-07-12T14:15:00.586Z,33.70
2018-07-12T14:17:28.247Z,33.10
2018-07-12T14:19:55.931Z,33.00
2018-07-12T14:22:23.736Z,32.50
2018-07-12T14:24:51.412Z,32.50
2018-07-12T14:27:19.085Z,32.60
2018-07-12T14:29:46.781Z,32.70
2018-07-12T14:32:14.452Z,32.10
2018-07-12T14:34:42.133Z,32.20
2018-07-12T14:37:09.851Z,31.70
2018-07-12T14:39:37.514Z,31.20
2018-07-12T14:42:05.189Z,31.20
2018-07-12T14:44:32.881Z,31.30
2018-07-12T14:47:00.532Z,31.20
2018-07-12T14:49:28.282Z,30.70
2018-07-12T14:51:55.950Z,30.60
2018-07-12T14:54:23.689Z,30.60
2018-07-12T14:56:51.360Z,30.20
2018-07-12T14:59:19.054Z,30.30
2018-07-12T15:01:46.755Z,30.30
2018-07-12T15:04:14.381Z,30.00
2018-07-12T15:06:42.083Z,29.80
2018-07-12T15:09:09.894Z,29.60
2018-07-12T15:11:37.693Z,30.10
2018-07-12T15:14:05.625Z,30.00
2018-07-12T15:16:33.342Z,29.00
2018-07-12T15:19:01.146Z,29.10
2018-07-12T15:21:28.800Z,29.60
2018-07-12T15:26:24.173Z,29.40
2018-07-12T15:28:51.785Z,29.50
2018-07-12T15:31:19.462Z,29.40
2018-07-12T15:36:14.758Z,29.30
2018-07-12T15:38:42.408Z,29.70
2018-07-12T15:41:10.105Z,30.00
2018-07-12T15:43:37.840Z,29.90
2018-07-12T15:46:05.706Z,29.90
2018-07-12T15:48:33.392Z,29.60
2018-07-12T15:51:01.098Z,29.80
2018-07-12T15:53:28.772Z,29.80
2018-07-12T15:55:56.453Z,30.20
2018-07-12T15:58:24.150Z,31.20
2018-07-12T16:00:51.837Z,30.70
2018-07-12T16:03:19.566Z,30.20
2018-07-12T16:05:47.269Z,30.00
2018-07-12T16:08:15.256Z,29.60
2018-07-12T16:10:42.990Z,30.00
2018-07-12T16:13:10.706Z,30.40
2018-07-12T16:15:38.440Z,31.20
2018-07-12T16:18:06.160Z,31.20
2018-07-12T16:20:33.874Z,31.40
2018-07-12T16:23:02.468Z,30.20
2018-07-12T16:25:30.356Z,30.80
2018-07-12T16:27:58.047Z,30.70
2018-07-12T16:30:25.795Z,31.10
2018-07-12T16:32:53.495Z,31.40
2018-07-12T16:35:21.170Z,31.70
2018-07-12T16:37:48.897Z,31.50
2018-07-12T16:40:16.567Z,31.60
2018-07-12T16:42:44.238Z,31.40
2018-07-12T16:45:12.003Z,31.00
2018-07-12T16:47:39.690Z,30.90
2018-07-12T16:50:07.477Z,31.70
2018-07-12T16:55:02.831Z,33.30
2018-07-12T16:57:30.552Z,34.20
2018-07-12T16:59:58.270Z,34.00
2018-07-12T17:02:25.960Z,34.20
2018-07-12T17:04:53.753Z,33.40
2018-07-12T17:07:21.612Z,33.90
2018-07-12T17:09:49.199Z,33.00
2018-07-12T17:12:16.878Z,32.90
2018-07-12T17:14:44.562Z,32.50
2018-07-12T17:17:12.279Z,32.70
2018-07-12T17:19:40.016Z,32.70
2018-07-12T17:22:08.025Z,32.70
2018-07-12T17:24:35.784Z,32.70
2018-07-12T17:27:03.503Z,33.20
2018-07-12T17:29:31.216Z,34.20
2018-07-12T17:31:58.951Z,34.30
2018-07-12T17:36:54.358Z,34.00
2018-07-12T17:39:22.033Z,34.80
2018-07-12T17:41:49.813Z,34.70
2018-07-12T17:46:45.077Z,34.90
2018-07-12T17:49:12.842Z,36.20
2018-07-12T17:51:40.517Z,35.80
2018-07-12T17:54:08.208Z,35.30
2018-07-12T17:56:36.035Z,35.00
2018-07-12T17:59:03.759Z,35.00
2018-07-12T18:01:31.469Z,34.90
2018-07-12T18:03:59.173Z,35.00
2018-07-12T18:06:26.854Z,35.30
2018-07-12T18:08:54.535Z,35.10
2018-07-12T18:11:22.259Z,35.60
2018-07-12T18:13:50.293Z,35.50
2018-07-12T18:16:17.993Z,36.20
2018-07-12T18:18:45.752Z,37.60
2018-07-12T18:23:40.994Z,39.20
2018-07-12T18:26:08.771Z,40.40
2018-07-12T18:28:36.413Z,41.00
2018-07-12T18:31:04.128Z,41.70
2018-07-12T18:33:31.839Z,42.20
2018-07-12T18:35:59.503Z,42.40
2018-07-12T18:38:27.181Z,43.00
2018-07-12T18:40:54.851Z,43.10
2018-07-12T18:43:22.599Z,43.50
2018-07-12T18:45:50.627Z,44.00
2018-07-12T18:48:18.656Z,44.40
2018-07-12T18:50:46.586Z,44.60
2018-07-12T18:53:14.249Z,45.30
2018-07-12T18:55:41.897Z,46.30
2018-07-12T18:58:09.625Z,46.70
2018-07-12T19:00:37.292Z,46.80
2018-07-12T19:03:05.070Z,47.50
2018-07-12T19:05:32.715Z,47.60
2018-07-12T19:08:00.431Z,47.90
2018-07-12T19:10:28.095Z,48.70
2018-07-12T19:12:55.834Z,49.30
2018-07-12T19:15:23.549Z,50.10
2018-07-12T19:17:51.311Z,50.30
2018-07-12T19:20:19.055Z,50.50
2018-07-12T19:22:46.758Z,51.00
2018-07-12T19:25:14.490Z,51.10
2018-07-12T19:27:42.180Z,51.40
2018-07-12T19:30:10.016Z,51.90
2018-07-12T19:32:37.684Z,52.10
2018-07-12T19:35:05.516Z,52.30
2018-07-12T19:37:33.276Z,52.80
2018-07-12T19:40:01.136Z,53.10
2018-07-12T19:42:28.944Z,53.20
2018-07-12T19:44:56.604Z,53.80
2018-07-12T19:47:24.287Z,54.10
2018-07-12T19:49:51.955Z,54.30
2018-07-12T19:52:19.624Z,54.40
2018-07-12T19:54:47.568Z,54.60
2018-07-12T19:57:15.240Z,55.00
2018-07-12T20:02:10.840Z,55.40
2018-07-12T20:04:38.570Z,56.10
2018-07-12T20:07:06.402Z,56.60
2018-07-12T20:09:34.162Z,56.80
2018-07-12T20:12:02.027Z,57.00
2018-07-12T20:14:29.782Z,57.40
2018-07-12T20:16:57.496Z,57.40
2018-07-12T20:19:25.326Z,57.40
2018-07-12T20:24:20.851Z,58.20
2018-07-12T20:26:48.764Z,58.30
2018-07-12T20:29:16.600Z,58.50
2018-07-12T20:31:44.300Z,58.40
2018-07-12T20:34:12.134Z,58.60
2018-07-12T20:36:39.794Z,58.80
2018-07-12T20:39:08.216Z,59.10
2018-07-12T20:41:36.232Z,59.30
2018-07-12T20:44:04.043Z,59.70
2018-07-12T20:46:31.705Z,60.90
2018-07-12T20:48:59.596Z,60.30
2018-07-12T20:51:27.264Z,61.00
2018-07-12T20:53:55.124Z,61.60
2018-07-12T20:56:22.825Z,62.30
2018-07-12T21:01:18.540Z,63.30
2018-07-12T21:03:46.235Z,63.40
2018-07-12T21:06:13.884Z,63.70
2018-07-12T21:08:41.574Z,64.40
2018-07-12T21:11:09.324Z,63.30
2018-07-12T21:13:36.988Z,63.40
2018-07-12T21:16:05.330Z,63.20
2018-07-12T21:18:33.046Z,63.60
2018-07-12T21:21:00.946Z,63.60
2018-07-12T21:23:28.609Z,63.70
2018-07-12T21:25:56.362Z,63.80
2018-07-12T21:28:24.061Z,64.20
2018-07-12T21:30:51.725Z,64.80
2018-07-12T21:33:19.460Z,65.00
2018-07-12T21:35:47.080Z,65.00
2018-07-12T21:38:14.741Z,65.40
2018-07-12T21:40:43.043Z,65.40
2018-07-12T21:43:10.797Z,65.20
2018-07-12T21:45:38.539Z,65.20
2018-07-12T21:48:06.266Z,65.20
2018-07-12T21:50:33.953Z,65.40
2018-07-12T21:53:01.684Z,65.50
2018-07-12T21:57:56.945Z,65.40
2018-07-12T22:00:24.605Z,65.20
2018-07-12T22:02:52.312Z,65.50
2018-07-12T22:05:19.965Z,65.80
2018-07-12T22:07:58.665Z,65.60
2018-07-12T22:10:26.555Z,65.60
2018-07-12T22:12:54.269Z,65.50
2018-07-12T22:15:22.001Z,66.00
2018-07-12T22:17:49.851Z,66.60
2018-07-12T22:20:17.449Z,66.60
2018-07-12T22:22:45.277Z,67.00
2018-07-12T22:25:13.103Z,67.60
2018-07-12T22:27:40.805Z,67.40
2018-07-12T22:30:08.500Z,67.80
2018-07-12T22:32:36.230Z,67.60
2018-07-12T22:35:03.905Z,68.00
2018-07-12T22:37:31.585Z,68.50
2018-07-12T22:39:59.251Z,68.20
2018-07-12T22:42:26.914Z,68.00
2018-07-12T22:44:54.578Z,68.30
2018-07-12T22:47:22.473Z,68.20
2018-07-12T22:49:50.112Z,68.20
2018-07-12T22:52:20.279Z,68.50
2018-07-12T22:54:48.753Z,69.10
2018-07-12T22:57:16.430Z,69.10
2018-07-12T22:59:44.116Z,69.50
2018-07-12T23:02:11.798Z,69.70
2018-07-12T23:04:39.501Z,70.00
2018-07-12T23:07:07.437Z,69.90
2018-07-12T23:09:35.123Z,70.20
2018-07-12T23:12:03.310Z,70.30
2018-07-12T23:14:31.031Z,70.00
2018-07-12T23:16:58.849Z,70.10
2018-07-12T23:19:26.507Z,70.30
2018-07-12T23:21:54.193Z,70.70
2018-07-12T23:24:21.877Z,70.70
2018-07-12T23:26:49.555Z,70.80
2018-07-12T23:29:17.243Z,71.00
2018-07-12T23:31:44.854Z,71.00
2018-07-12T23:34:12.531Z,70.90
2018-07-12T23:36:40.367Z,71.60
2018-07-12T23:39:08.699Z,71.70
2018-07-12T23:41:36.503Z,71.90
2018-07-12T23:44:04.203Z,72.20
2018-07-12T23:46:32.053Z,72.30
2018-07-12T23:48:59.871Z,72.00
2018-07-12T23:51:27.546Z,71.90
2018-07-12T23:53:55.202Z,72.00
2018-07-12T23:56:22.867Z,72.10
2018-07-12T23:58:51.230Z,72.00
